createdAt,value
2022-10-27T00:00:10.265Z,89.41
2022-10-27T00:01:09.974Z,89.41
2022-10-27T00:02:09.955Z,89.51
2022-10-27T00:03:13.669Z,89.51
2022-10-27T00:04:10.915Z,89.61
2022-10-27T00:05:09.900Z,89.72
2022-10-27T00:06:10.142Z,89.61
2022-10-27T00:07:09.889Z,89.72
2022-10-27T00:08:09.865Z,89.81
2022-10-27T00:09:09.848Z,89.72
2022-10-27T00:10:09.837Z,89.81
2022-10-27T00:11:10.036Z,89.81
2022-10-27T00:12:09.804Z,89.81
2022-10-27T00:13:10.067Z,89.86
2022-10-27T00:14:09.796Z,89.96
2022-10-27T00:15:09.787Z,90.06
2022-10-27T00:16:09.768Z,90.16
2022-10-27T00:17:09.770Z,90.26
2022-10-27T00:18:09.742Z,90.26
2022-10-27T00:19:10.268Z,90.36
2022-10-27T00:20:09.999Z,90.36
2022-10-27T00:21:09.708Z,90.36
2022-10-27T00:22:09.686Z,90.36
2022-10-27T00:23:09.678Z,90.47
2022-10-27T00:24:09.679Z,90.67
2022-10-27T00:25:09.663Z,90.67
2022-10-27T00:26:09.889Z,90.77
2022-10-27T00:27:09.642Z,90.77
2022-10-27T00:28:09.619Z,90.67
2022-10-27T00:29:09.608Z,90.77
2022-10-27T00:30:09.590Z,90.77
2022-10-27T00:31:09.589Z,90.81
2022-10-27T00:32:09.886Z,90.92
2022-10-27T00:33:09.574Z,90.92
2022-10-27T00:34:09.563Z,91.02
2022-10-27T00:35:09.532Z,91.12
2022-10-27T00:36:09.535Z,91.22
2022-10-27T00:37:30.761Z,91.22
2022-10-27T00:38:09.499Z,91.22
2022-10-27T00:39:09.507Z,91.22
2022-10-27T00:40:09.472Z,91.22
2022-10-27T00:41:09.464Z,91.22
2022-10-27T00:42:09.444Z,91.22
2022-10-27T00:43:09.656Z,91.32
2022-10-27T00:44:09.744Z,91.42
2022-10-27T00:45:09.427Z,91.32
2022-10-27T00:46:09.417Z,91.32
2022-10-27T00:47:09.436Z,91.42
2022-10-27T00:48:09.389Z,91.42
2022-10-27T00:49:09.625Z,91.52
2022-10-27T00:50:09.355Z,91.52
2022-10-27T00:51:09.359Z,91.42
2022-10-27T00:52:09.349Z,91.52
2022-10-27T00:53:09.393Z,91.52
2022-10-27T00:54:09.319Z,91.52
2022-10-27T00:55:09.617Z,91.63
2022-10-27T00:56:09.310Z,91.73
2022-10-27T00:57:09.287Z,91.73
2022-10-27T00:58:09.280Z,91.83
2022-10-27T00:59:09.248Z,91.83
2022-10-27T01:00:09.251Z,91.83
2022-10-27T01:01:09.443Z,91.83
2022-10-27T01:02:09.224Z,91.93
2022-10-27T01:03:09.222Z,91.93
2022-10-27T01:04:09.190Z,91.93
2022-10-27T01:05:09.179Z,91.93
2022-10-27T01:06:09.183Z,92.03
2022-10-27T01:07:09.432Z,92.03
2022-10-27T01:08:09.143Z,92.13
2022-10-27T01:09:09.151Z,92.13
2022-10-27T01:10:09.137Z,92.03
2022-10-27T01:11:09.121Z,92.13
2022-10-27T01:12:09.432Z,92.13
2022-10-27T01:13:09.081Z,92.13
2022-10-27T01:14:09.085Z,92.13
2022-10-27T01:15:09.062Z,92.13
2022-10-27T01:16:09.050Z,92.13
2022-10-27T01:17:09.033Z,92.13
2022-10-27T01:18:09.293Z,92.18
2022-10-27T01:19:09.343Z,92.07
2022-10-27T01:20:09.015Z,92.18
2022-10-27T01:21:08.993Z,92.28
2022-10-27T01:22:08.993Z,92.28
2022-10-27T01:23:08.977Z,92.28
2022-10-27T01:24:09.216Z,92.38
2022-10-27T01:25:08.958Z,92.38
2022-10-27T01:26:08.942Z,92.38
2022-10-27T01:27:09.137Z,92.38
2022-10-27T01:28:08.905Z,92.48
2022-10-27T01:29:08.894Z,92.48
2022-10-27T01:30:08.890Z,92.58
2022-10-27T01:31:08.880Z,92.58
2022-10-27T01:32:08.882Z,92.58
2022-10-27T01:33:09.165Z,92.58
2022-10-27T01:34:08.827Z,92.58
2022-10-27T01:35:09.130Z,92.68
2022-10-27T01:36:08.820Z,92.68
2022-10-27T01:37:08.819Z,92.68
2022-10-27T01:38:08.803Z,92.68
2022-10-27T01:39:08.778Z,92.79
2022-10-27T01:40:08.767Z,92.68
2022-10-27T01:41:09.032Z,92.68
2022-10-27T01:42:08.750Z,92.68
2022-10-27T01:43:08.745Z,92.68
2022-10-27T01:44:08.711Z,92.68
2022-10-27T01:45:08.700Z,92.79
2022-10-27T01:46:08.703Z,92.79
2022-10-27T01:47:08.932Z,92.79
2022-10-27T01:48:08.671Z,92.79
2022-10-27T01:49:08.674Z,92.79
2022-10-27T01:50:08.656Z,92.79
2022-10-27T01:51:08.644Z,92.79
2022-10-27T01:52:08.626Z,92.79
2022-10-27T01:53:08.822Z,92.79
2022-10-27T01:54:08.602Z,92.79
2022-10-27T01:55:08.901Z,92.79
2022-10-27T01:56:08.585Z,92.83
2022-10-27T01:57:08.577Z,92.83
2022-10-27T01:58:08.544Z,92.93
2022-10-27T01:59:08.535Z,92.93
2022-10-27T02:00:08.537Z,93.03
2022-10-27T02:01:08.791Z,93.03
2022-10-27T02:02:08.804Z,93.13
2022-10-27T02:03:08.485Z,93.13
2022-10-27T02:04:08.490Z,93.13
2022-10-27T02:05:08.478Z,93.03
2022-10-27T02:06:08.464Z,93.13
2022-10-27T02:07:08.759Z,93.13
2022-10-27T02:08:08.416Z,93.13
2022-10-27T02:09:08.414Z,93.13
2022-10-27T02:10:08.398Z,93.03
2022-10-27T02:11:08.406Z,93.13
2022-10-27T02:12:08.577Z,93.13
2022-10-27T02:13:08.358Z,93.13
2022-10-27T02:14:08.363Z,93.13
2022-10-27T02:15:08.359Z,93.13
2022-10-27T02:16:08.325Z,93.24
2022-10-27T02:17:08.318Z,93.24
2022-10-27T02:18:08.531Z,93.33
2022-10-27T02:19:08.302Z,93.33
2022-10-27T02:20:08.295Z,93.33
2022-10-27T02:21:08.285Z,93.33
2022-10-27T02:22:08.273Z,93.44
2022-10-27T02:23:08.242Z,93.44
2022-10-27T02:24:08.553Z,93.44
2022-10-27T02:25:08.232Z,93.44
2022-10-27T02:26:08.257Z,93.44
2022-10-27T02:27:08.462Z,93.44
2022-10-27T02:28:08.196Z,93.44
2022-10-27T02:29:08.171Z,93.48
2022-10-27T02:30:08.165Z,93.48
2022-10-27T02:31:08.161Z,93.48
2022-10-27T02:32:08.147Z,93.59
2022-10-27T02:33:08.440Z,93.68
2022-10-27T02:34:08.103Z,93.59
2022-10-27T02:35:08.103Z,93.59
2022-10-27T02:36:08.101Z,93.59
2022-10-27T02:37:08.088Z,93.59
2022-10-27T02:38:08.101Z,93.48
2022-10-27T02:39:08.048Z,93.59
2022-10-27T02:40:08.034Z,93.59
2022-10-27T02:41:08.027Z,93.59
2022-10-27T02:42:08.014Z,93.68
2022-10-27T02:43:08.003Z,93.59
2022-10-27T02:44:08.296Z,93.48
2022-10-27T02:45:07.990Z,93.59
2022-10-27T02:46:07.979Z,93.59
2022-10-27T02:47:09.911Z,93.59
2022-10-27T02:48:07.956Z,93.59
2022-10-27T02:49:08.247Z,93.63
2022-10-27T02:50:07.930Z,93.63
2022-10-27T02:51:07.923Z,93.73
2022-10-27T02:52:07.896Z,93.83
2022-10-27T02:53:07.887Z,93.83
2022-10-27T02:54:07.866Z,93.83
2022-10-27T02:55:08.064Z,93.83
2022-10-27T02:56:07.842Z,93.93
2022-10-27T02:57:07.851Z,93.93
2022-10-27T02:58:07.842Z,94.04
2022-10-27T02:59:07.842Z,94.13
2022-10-27T03:00:07.806Z,94.24
2022-10-27T03:01:08.135Z,94.34
2022-10-27T03:02:07.825Z,94.34
2022-10-27T03:03:07.774Z,94.44
2022-10-27T03:04:07.755Z,94.59
2022-10-27T03:05:08.066Z,94.59
2022-10-27T03:06:07.744Z,94.69
2022-10-27T03:07:07.726Z,94.79
2022-10-27T03:08:07.716Z,94.79
2022-10-27T03:09:07.691Z,94.79
2022-10-27T03:10:07.741Z,94.89
2022-10-27T03:11:07.875Z,94.89
2022-10-27T03:12:07.655Z,95.00
2022-10-27T03:13:07.643Z,95.00
2022-10-27T03:14:07.640Z,95.00
2022-10-27T03:15:07.926Z,95.09
2022-10-27T03:16:07.604Z,95.09
2022-10-27T03:17:07.593Z,95.20
2022-10-27T03:18:07.596Z,95.20
2022-10-27T03:19:07.579Z,95.09
2022-10-27T03:20:07.548Z,95.09
2022-10-27T03:21:07.757Z,95.05
2022-10-27T03:22:07.525Z,95.00
2022-10-27T03:23:07.515Z,95.09
2022-10-27T03:24:07.505Z,95.09
2022-10-27T03:25:07.500Z,95.20
2022-10-27T03:26:07.803Z,95.20
2022-10-27T03:27:07.466Z,95.09
2022-10-27T03:28:07.448Z,95.20
2022-10-27T03:29:07.460Z,95.20
2022-10-27T03:30:07.455Z,95.30
2022-10-27T03:31:07.444Z,95.20
2022-10-27T03:32:07.440Z,95.30
2022-10-27T03:33:07.400Z,95.30
2022-10-27T03:34:07.399Z,95.30
2022-10-27T03:35:07.382Z,95.20
2022-10-27T03:36:07.372Z,95.20
2022-10-27T03:37:07.369Z,95.20
2022-10-27T03:38:07.337Z,95.20
2022-10-27T03:39:07.340Z,95.20
2022-10-27T03:40:07.523Z,95.30
2022-10-27T03:41:07.302Z,95.30
2022-10-27T03:42:07.282Z,95.30
2022-10-27T03:43:07.292Z,95.30
2022-10-27T03:44:07.264Z,95.40
2022-10-27T03:45:07.273Z,95.30
2022-10-27T03:46:07.491Z,95.40
2022-10-27T03:47:07.230Z,95.40
2022-10-27T03:48:07.213Z,95.40
2022-10-27T03:49:07.234Z,95.40
2022-10-27T03:50:07.216Z,95.40
2022-10-27T03:51:07.210Z,95.40
2022-10-27T03:52:07.256Z,95.50
2022-10-27T03:53:07.188Z,95.50
2022-10-27T03:54:07.144Z,95.40
2022-10-27T03:55:07.133Z,95.50
2022-10-27T03:56:07.122Z,95.40
2022-10-27T03:57:07.104Z,95.30
2022-10-27T03:58:07.326Z,95.40
2022-10-27T03:59:07.178Z,95.40
2022-10-27T04:00:07.089Z,95.40
2022-10-27T04:01:07.248Z,95.54
2022-10-27T04:02:07.466Z,95.65
2022-10-27T04:03:07.049Z,95.65
2022-10-27T04:04:07.361Z,95.65
2022-10-27T04:05:07.016Z,95.65
2022-10-27T04:06:07.071Z,95.65
2022-10-27T04:07:07.008Z,95.65
2022-10-27T04:08:06.977Z,95.65
2022-10-27T04:09:06.982Z,95.75
2022-10-27T04:10:06.958Z,95.75
2022-10-27T04:11:06.939Z,95.85
2022-10-27T04:12:06.961Z,95.85
2022-10-27T04:13:06.918Z,95.85
2022-10-27T04:14:06.908Z,95.95
2022-10-27T04:15:06.911Z,95.95
2022-10-27T04:16:06.903Z,96.06
2022-10-27T04:17:06.903Z,96.06
2022-10-27T04:18:06.873Z,96.06
2022-10-27T04:19:06.844Z,96.06
2022-10-27T04:20:06.852Z,96.06
2022-10-27T04:21:06.836Z,96.15
2022-10-27T04:22:06.824Z,96.15
2022-10-27T04:23:06.836Z,96.15
2022-10-27T04:24:07.031Z,96.26
2022-10-27T04:25:06.785Z,96.15
2022-10-27T04:26:06.775Z,96.15
2022-10-27T04:27:06.776Z,96.26
2022-10-27T04:28:06.751Z,96.26
2022-10-27T04:29:07.034Z,96.26
2022-10-27T04:30:06.733Z,96.26
2022-10-27T04:31:06.695Z,96.26
2022-10-27T04:32:06.692Z,96.26
2022-10-27T04:33:06.688Z,96.26
2022-10-27T04:34:06.665Z,96.36
2022-10-27T04:35:06.988Z,96.36
2022-10-27T04:36:06.658Z,96.26
2022-10-27T04:37:06.638Z,96.36
2022-10-27T04:38:06.636Z,96.26
2022-10-27T04:39:06.650Z,96.26
2022-10-27T04:40:06.600Z,96.26
2022-10-27T04:41:06.799Z,96.26
2022-10-27T04:42:06.575Z,96.26
2022-10-27T04:43:06.578Z,96.26
2022-10-27T04:44:06.550Z,96.36
2022-10-27T04:45:06.549Z,96.26
2022-10-27T04:46:06.518Z,96.26
2022-10-27T04:47:06.752Z,96.26
2022-10-27T04:48:06.501Z,96.36
2022-10-27T04:49:06.491Z,96.26
2022-10-27T04:50:06.468Z,96.26
2022-10-27T04:51:06.472Z,96.26
2022-10-27T04:52:06.796Z,96.36
2022-10-27T04:53:06.456Z,96.36
2022-10-27T04:54:06.428Z,96.26
2022-10-27T04:55:06.422Z,96.26
2022-10-27T04:56:06.389Z,96.06
2022-10-27T04:57:06.621Z,96.06
2022-10-27T04:58:09.343Z,96.06
2022-10-27T04:59:06.372Z,96.15
2022-10-27T05:00:06.374Z,96.15
2022-10-27T05:01:06.391Z,96.06
2022-10-27T05:02:06.408Z,96.15
2022-10-27T05:03:06.599Z,96.15
2022-10-27T05:04:06.316Z,96.15
2022-10-27T05:05:06.281Z,96.15
2022-10-27T05:06:06.296Z,96.15
2022-10-27T05:07:06.276Z,96.15
2022-10-27T05:08:06.266Z,96.15
2022-10-27T05:09:06.516Z,96.06
2022-10-27T05:10:06.231Z,96.06
2022-10-27T05:11:06.231Z,96.06
2022-10-27T05:12:06.221Z,95.95
2022-10-27T05:13:06.210Z,95.95
2022-10-27T05:14:06.185Z,95.85
2022-10-27T05:15:06.496Z,95.85
2022-10-27T05:16:06.177Z,95.90
2022-10-27T05:17:06.165Z,95.95
2022-10-27T05:18:09.418Z,95.90
2022-10-27T05:19:06.123Z,95.90
2022-10-27T05:20:06.129Z,95.90
2022-10-27T05:21:06.098Z,95.90
2022-10-27T05:22:06.099Z,96.00
2022-10-27T05:23:06.387Z,96.00
2022-10-27T05:24:06.064Z,96.00
2022-10-27T05:25:06.049Z,96.00
2022-10-27T05:26:06.051Z,96.00
2022-10-27T05:27:06.028Z,96.00
2022-10-27T05:28:06.022Z,96.00
2022-10-27T05:29:06.199Z,96.00
2022-10-27T05:30:06.023Z,95.90
2022-10-27T05:31:05.978Z,96.00
2022-10-27T05:32:05.991Z,95.90
2022-10-27T05:33:05.957Z,95.90
2022-10-27T05:34:06.186Z,95.90
2022-10-27T05:35:05.934Z,95.90
2022-10-27T05:36:05.951Z,95.90
2022-10-27T05:37:05.923Z,96.00
2022-10-27T05:38:05.890Z,95.90
2022-10-27T05:39:05.891Z,95.90
2022-10-27T05:40:05.914Z,95.90
2022-10-27T05:41:05.984Z,95.90
2022-10-27T05:42:05.885Z,95.90
2022-10-27T05:43:05.854Z,95.90
2022-10-27T05:44:05.846Z,95.90
2022-10-27T05:45:06.102Z,96.00
2022-10-27T05:46:05.828Z,95.90
2022-10-27T05:47:05.792Z,95.90
2022-10-27T05:48:06.046Z,95.90
2022-10-27T05:49:05.786Z,96.00
2022-10-27T05:50:05.763Z,96.00
2022-10-27T05:51:05.745Z,96.10
2022-10-27T05:52:06.005Z,96.00
2022-10-27T05:53:05.736Z,95.90
2022-10-27T05:54:05.727Z,96.00
2022-10-27T05:55:05.703Z,95.90
2022-10-27T05:56:06.009Z,95.90
2022-10-27T05:57:05.697Z,95.90
2022-10-27T05:58:05.682Z,95.79
2022-10-27T05:59:05.673Z,95.79
2022-10-27T06:00:05.646Z,95.79
2022-10-27T06:01:06.723Z,95.79
2022-10-27T06:02:05.771Z,95.84
2022-10-27T06:03:05.616Z,95.94
2022-10-27T06:04:05.603Z,95.94
2022-10-27T06:05:05.615Z,95.94
2022-10-27T06:06:05.598Z,95.94
2022-10-27T06:07:05.559Z,95.94
2022-10-27T06:08:05.575Z,96.04
2022-10-27T06:09:05.551Z,96.04
2022-10-27T06:10:05.527Z,96.04
2022-10-27T06:11:05.532Z,96.15
2022-10-27T06:12:05.522Z,96.15
2022-10-27T06:13:05.508Z,96.25
2022-10-27T06:14:05.708Z,96.25
2022-10-27T06:15:05.468Z,96.15
2022-10-27T06:16:07.172Z,96.15
2022-10-27T06:17:05.448Z,96.15
2022-10-27T06:18:05.464Z,96.15
2022-10-27T06:19:05.435Z,96.15
2022-10-27T06:20:05.445Z,96.04
2022-10-27T06:21:05.452Z,96.04
2022-10-27T06:22:05.404Z,96.04
2022-10-27T06:23:05.372Z,96.04
2022-10-27T06:24:05.585Z,96.04
2022-10-27T06:25:05.364Z,96.15
2022-10-27T06:26:05.355Z,96.25
2022-10-27T06:27:05.343Z,96.25
2022-10-27T06:28:05.322Z,96.25
2022-10-27T06:29:05.659Z,96.25
2022-10-27T06:30:05.304Z,96.15
2022-10-27T06:31:05.285Z,96.25
2022-10-27T06:32:05.285Z,96.25
2022-10-27T06:33:05.278Z,96.15
2022-10-27T06:34:05.270Z,96.25
2022-10-27T06:35:05.554Z,96.25
2022-10-27T06:36:05.267Z,96.25
2022-10-27T06:37:05.236Z,96.15
2022-10-27T06:38:05.215Z,96.15
2022-10-27T06:39:05.199Z,96.15
2022-10-27T06:40:05.339Z,96.15
2022-10-27T06:41:05.475Z,96.15
2022-10-27T06:42:05.180Z,96.15
2022-10-27T06:43:08.779Z,96.04
2022-10-27T06:44:05.137Z,96.04
2022-10-27T06:45:05.149Z,96.04
2022-10-27T06:46:05.372Z,96.04
2022-10-27T06:47:05.108Z,96.04
2022-10-27T06:48:05.098Z,96.04
2022-10-27T06:50:05.090Z,96.04
2022-10-27T06:51:05.369Z,96.04
2022-10-27T06:52:05.073Z,96.04
2022-10-27T06:53:05.050Z,96.04
2022-10-27T06:54:05.368Z,95.94
2022-10-27T06:55:05.023Z,95.94
2022-10-27T06:56:05.022Z,95.94
2022-10-27T06:57:05.003Z,95.94
2022-10-27T06:58:04.981Z,96.04
2022-10-27T06:59:05.267Z,96.04
2022-10-27T07:00:04.974Z,96.04
2022-10-27T07:01:04.978Z,95.94
2022-10-27T07:02:04.979Z,96.04
2022-10-27T07:03:04.984Z,96.04
2022-10-27T07:04:04.921Z,96.04
2022-10-27T07:05:05.113Z,95.90
2022-10-27T07:06:05.391Z,95.94
2022-10-27T07:07:04.875Z,95.90
2022-10-27T07:08:04.862Z,95.94
2022-10-27T07:09:07.339Z,95.90
2022-10-27T07:10:04.853Z,95.90
2022-10-27T07:11:05.076Z,95.79
2022-10-27T07:12:04.827Z,95.79
2022-10-27T07:13:04.830Z,95.69
2022-10-27T07:14:04.804Z,95.69
2022-10-27T07:15:04.784Z,95.69
2022-10-27T07:16:04.792Z,95.69
2022-10-27T07:17:05.076Z,95.59
2022-10-27T07:18:05.112Z,95.49
2022-10-27T07:19:04.735Z,95.34
2022-10-27T07:20:04.725Z,95.24
2022-10-27T07:21:04.705Z,95.14
2022-10-27T07:22:04.707Z,95.04
2022-10-27T07:23:05.007Z,95.04
2022-10-27T07:24:04.714Z,94.93
2022-10-27T07:25:04.675Z,94.84
2022-10-27T07:26:04.658Z,94.73
2022-10-27T07:27:06.455Z,94.73
2022-10-27T07:28:04.952Z,94.59
2022-10-27T07:29:04.619Z,94.48
2022-10-27T07:30:04.621Z,94.38
2022-10-27T07:31:04.598Z,94.28
2022-10-27T07:32:04.602Z,94.18
2022-10-27T07:33:04.602Z,93.93
2022-10-27T07:34:04.889Z,93.83
2022-10-27T07:35:04.548Z,93.73
2022-10-27T07:36:04.540Z,93.43
2022-10-27T07:37:04.523Z,93.32
2022-10-27T07:38:04.523Z,93.18
2022-10-27T07:39:04.810Z,93.07
2022-10-27T07:40:04.504Z,92.77
2022-10-27T07:41:04.479Z,92.42
2022-10-27T07:42:04.463Z,92.22
2022-10-27T07:43:07.192Z,91.91
2022-10-27T07:44:04.455Z,91.67
2022-10-27T07:45:04.727Z,91.26
2022-10-27T07:46:04.676Z,91.06
2022-10-27T07:47:04.418Z,90.61
2022-10-27T07:48:04.385Z,90.31
2022-10-27T07:49:04.386Z,89.96
2022-10-27T07:50:04.377Z,89.76
2022-10-27T07:51:04.367Z,89.15
2022-10-27T07:52:04.593Z,88.80
2022-10-27T07:53:04.324Z,88.49
2022-10-27T07:54:04.314Z,88.05
2022-10-27T07:55:04.295Z,87.85
2022-10-27T07:56:04.304Z,87.54
2022-10-27T07:57:04.290Z,87.34
2022-10-27T07:58:04.525Z,87.20
2022-10-27T07:59:04.332Z,86.90
2022-10-27T08:00:04.259Z,86.59
2022-10-27T08:01:04.297Z,86.45
2022-10-27T08:02:04.290Z,86.35
2022-10-27T08:03:04.221Z,85.74
2022-10-27T08:04:04.396Z,85.64
2022-10-27T08:05:04.188Z,85.19
2022-10-27T08:06:04.510Z,84.89
2022-10-27T08:07:04.169Z,84.69
2022-10-27T08:08:04.163Z,84.55
2022-10-27T08:09:04.162Z,84.34
2022-10-27T08:10:04.128Z,84.14
2022-10-27T08:11:04.120Z,83.94
2022-10-27T08:12:04.409Z,83.50
2022-10-27T08:13:04.113Z,83.29
2022-10-27T08:14:04.094Z,83.29
2022-10-27T08:15:04.081Z,83.09
2022-10-27T08:16:04.154Z,82.75
2022-10-27T08:17:05.074Z,82.65
2022-10-27T08:18:04.183Z,82.45
2022-10-27T08:19:04.045Z,82.14
2022-10-27T08:20:04.024Z,82.10
2022-10-27T08:21:04.014Z,81.90
2022-10-27T08:22:04.000Z,81.90
2022-10-27T08:23:03.986Z,81.80
2022-10-27T08:24:04.408Z,81.70
2022-10-27T08:25:06.101Z,81.60
2022-10-27T08:26:04.956Z,81.46
2022-10-27T08:27:03.923Z,81.46
2022-10-27T08:28:03.915Z,81.46
2022-10-27T08:29:04.174Z,81.16
2022-10-27T08:30:03.896Z,81.16
2022-10-27T08:31:03.910Z,81.16
2022-10-27T08:32:03.879Z,81.02
2022-10-27T08:33:03.858Z,81.02
2022-10-27T08:34:04.112Z,80.92
2022-10-27T08:35:03.851Z,80.92
2022-10-27T08:36:03.831Z,80.72
2022-10-27T08:37:03.820Z,80.62
2022-10-27T08:38:03.807Z,80.47
2022-10-27T08:39:03.787Z,80.38
2022-10-27T08:40:04.005Z,80.18
2022-10-27T08:41:03.780Z,79.87
2022-10-27T08:42:03.762Z,79.67
2022-10-27T08:43:03.757Z,79.43
2022-10-27T08:44:03.726Z,79.33
2022-10-27T08:45:04.044Z,79.23
2022-10-27T08:46:03.692Z,78.92
2022-10-27T08:47:03.703Z,78.79
2022-10-27T08:48:03.694Z,78.49
2022-10-27T08:49:03.857Z,78.28
2022-10-27T08:50:03.954Z,78.08
2022-10-27T08:51:03.643Z,77.98
2022-10-27T08:52:03.635Z,77.64
2022-10-27T08:53:04.948Z,77.55
2022-10-27T08:54:03.687Z,77.24
2022-10-27T08:55:03.607Z,76.90
2022-10-27T08:56:03.783Z,76.90
2022-10-27T08:57:03.585Z,76.70
2022-10-27T08:58:03.554Z,76.60
2022-10-27T08:59:03.552Z,76.40
2022-10-27T09:00:03.547Z,76.16
2022-10-27T09:01:03.768Z,75.86
2022-10-27T09:02:03.644Z,75.46
2022-10-27T09:03:03.521Z,75.46
2022-10-27T09:04:03.694Z,75.12
2022-10-27T09:05:03.491Z,75.02
2022-10-27T09:06:03.467Z,75.32
2022-10-27T09:07:03.470Z,74.72
2022-10-27T09:08:03.459Z,74.48
2022-10-27T09:09:03.446Z,74.38
2022-10-27T09:10:03.630Z,74.28
2022-10-27T09:11:03.433Z,74.28
2022-10-27T09:12:03.410Z,74.08
2022-10-27T09:13:03.732Z,73.98
2022-10-27T09:14:03.393Z,73.94
2022-10-27T09:15:03.363Z,73.34
2022-10-27T09:16:03.365Z,73.14
2022-10-27T09:17:03.364Z,72.84
2022-10-27T09:18:03.340Z,73.14
2022-10-27T09:19:03.534Z,72.80
2022-10-27T09:20:03.301Z,72.80
2022-10-27T09:21:03.296Z,72.60
2022-10-27T09:22:03.295Z,72.50
2022-10-27T09:23:05.472Z,72.30
2022-10-27T09:24:03.253Z,72.20
2022-10-27T09:25:03.265Z,71.97
2022-10-27T09:26:03.233Z,71.86
2022-10-27T09:27:03.246Z,71.66
2022-10-27T09:28:03.218Z,71.47
2022-10-27T09:29:03.530Z,71.26
2022-10-27T09:30:03.969Z,70.66
2022-10-27T09:31:03.192Z,70.83
2022-10-27T09:32:03.179Z,70.43
2022-10-27T09:33:03.169Z,70.32
2022-10-27T09:34:03.136Z,69.62
2022-10-27T09:35:03.191Z,69.62
2022-10-27T09:36:03.118Z,69.42
2022-10-27T09:37:03.118Z,69.49
2022-10-27T09:38:03.089Z,69.49
2022-10-27T09:39:03.177Z,69.39
2022-10-27T09:40:03.083Z,69.09
2022-10-27T09:41:03.383Z,68.99
2022-10-27T09:42:03.053Z,68.96
2022-10-27T09:43:03.043Z,67.96
2022-10-27T09:44:03.040Z,67.85
2022-10-27T09:45:03.010Z,67.76
2022-10-27T09:46:03.190Z,67.85
2022-10-27T09:47:02.980Z,67.76
2022-10-27T09:48:02.985Z,67.52
2022-10-27T09:49:05.554Z,67.52
2022-10-27T09:50:03.943Z,67.52
2022-10-27T09:51:03.263Z,67.42
2022-10-27T09:52:02.936Z,67.29
2022-10-27T09:53:02.937Z,66.99
2022-10-27T09:54:02.902Z,66.89
2022-10-27T09:55:03.134Z,66.89
2022-10-27T09:56:02.874Z,66.78
2022-10-27T09:57:02.878Z,66.69
2022-10-27T09:58:02.878Z,66.28
2022-10-27T09:59:02.899Z,66.39
2022-10-27T10:00:02.859Z,66.19
2022-10-27T10:01:02.815Z,66.39
2022-10-27T10:02:03.186Z,66.59
2022-10-27T10:04:04.408Z,66.36
2022-10-27T10:05:02.777Z,65.86
2022-10-27T10:06:02.772Z,65.86
2022-10-27T10:07:02.749Z,65.75
2022-10-27T10:08:03.052Z,65.66
2022-10-27T10:09:02.728Z,65.36
2022-10-27T10:10:02.730Z,65.45
2022-10-27T10:11:02.718Z,65.55
2022-10-27T10:12:02.730Z,65.55
2022-10-27T10:13:02.694Z,65.36
2022-10-27T10:14:02.894Z,65.45
2022-10-27T10:15:02.651Z,65.75
2022-10-27T10:16:02.655Z,65.55
2022-10-27T10:17:02.652Z,65.62
2022-10-27T10:18:02.627Z,65.52
2022-10-27T10:19:02.623Z,65.72
2022-10-27T10:20:02.918Z,65.62
2022-10-27T10:21:02.602Z,65.52
2022-10-27T10:22:02.573Z,65.42
2022-10-27T10:23:02.554Z,65.39
2022-10-27T10:24:02.543Z,65.19
2022-10-27T10:25:02.549Z,65.29
2022-10-27T10:26:02.846Z,65.39
2022-10-27T10:27:02.517Z,65.09
2022-10-27T10:28:02.496Z,64.49
2022-10-27T10:30:02.479Z,64.79
2022-10-27T10:31:02.469Z,64.89
2022-10-27T10:32:02.661Z,64.89
2022-10-27T10:33:02.463Z,64.79
2022-10-27T10:34:02.429Z,65.09
2022-10-27T10:35:02.431Z,65.09
2022-10-27T10:36:02.408Z,65.09
2022-10-27T10:37:02.709Z,65.09
2022-10-27T10:38:05.133Z,64.99
2022-10-27T10:39:02.393Z,64.99
2022-10-27T10:40:02.366Z,64.66
2022-10-27T10:41:02.375Z,64.66
2022-10-27T10:42:02.576Z,64.86
2022-10-27T10:43:02.600Z,64.96
2022-10-27T10:44:02.545Z,64.96
2022-10-27T10:45:02.326Z,64.96
2022-10-27T10:46:02.307Z,64.76
2022-10-27T10:47:02.294Z,64.96
2022-10-27T10:48:02.277Z,64.86
2022-10-27T10:49:02.255Z,64.96
2022-10-27T10:50:02.557Z,64.96
2022-10-27T10:51:02.236Z,65.29
2022-10-27T10:52:02.232Z,65.16
2022-10-27T10:53:02.216Z,65.36
2022-10-27T10:54:02.411Z,65.06
2022-10-27T10:55:02.397Z,65.26
2022-10-27T10:56:02.213Z,64.96
2022-10-27T10:57:02.317Z,65.06
2022-10-27T10:58:02.156Z,64.86
2022-10-27T10:59:02.146Z,64.96
2022-10-27T11:00:02.141Z,64.76
2022-10-27T11:01:02.538Z,64.73
2022-10-27T11:02:02.230Z,64.43
2022-10-27T11:03:02.113Z,64.43
2022-10-27T11:04:02.103Z,64.23
2022-10-27T11:05:02.089Z,64.33
2022-10-27T11:06:02.372Z,64.33
2022-10-27T11:07:02.071Z,63.93
2022-10-27T11:08:02.046Z,64.03
2022-10-27T11:09:02.183Z,64.13
2022-10-27T11:10:04.681Z,64.13
2022-10-27T11:11:03.233Z,64.33
2022-10-27T11:12:01.997Z,64.43
2022-10-27T11:13:01.973Z,64.63
2022-10-27T11:14:01.977Z,64.43
2022-10-27T11:15:02.276Z,64.53
2022-10-27T11:16:01.944Z,64.23
2022-10-27T11:17:02.165Z,64.23
2022-10-27T11:18:01.935Z,64.13
2022-10-27T11:19:01.914Z,64.23
2022-10-27T11:20:01.894Z,64.43
2022-10-27T11:21:02.177Z,64.03
2022-10-27T11:22:01.897Z,64.43
2022-10-27T11:23:01.881Z,64.30
2022-10-27T11:24:01.860Z,64.20
2022-10-27T11:25:01.837Z,64.40
2022-10-27T11:26:02.138Z,64.30
2022-10-27T11:27:02.017Z,64.30
2022-10-27T11:28:01.811Z,64.10
2022-10-27T11:29:01.806Z,63.70
2022-10-27T11:30:01.936Z,64.00
2022-10-27T11:31:01.774Z,64.00
2022-10-27T11:32:01.750Z,64.10
2022-10-27T11:33:01.776Z,63.97
2022-10-27T11:34:01.742Z,64.17
2022-10-27T11:35:01.793Z,64.30
2022-10-27T11:36:04.156Z,64.17
2022-10-27T11:37:01.706Z,64.07
2022-10-27T11:38:01.882Z,64.27
2022-10-27T11:39:01.886Z,63.87
2022-10-27T11:40:01.664Z,63.87
2022-10-27T11:41:01.674Z,63.87
2022-10-27T11:42:01.655Z,64.07
2022-10-27T11:43:01.720Z,63.67
2022-10-27T11:44:05.940Z,63.84
2022-10-27T11:45:02.621Z,63.54
2022-10-27T11:46:01.616Z,63.44
2022-10-27T11:47:01.610Z,63.34
2022-10-27T11:48:01.598Z,63.04
2022-10-27T11:49:01.758Z,62.94
2022-10-27T11:50:01.578Z,62.94
2022-10-27T11:51:01.531Z,62.97
2022-10-27T11:52:08.641Z,62.84
2022-10-27T11:53:01.504Z,63.04
2022-10-27T11:54:01.809Z,62.94
2022-10-27T11:55:01.542Z,62.45
2022-10-27T11:56:03.228Z,62.54
2022-10-27T11:57:07.397Z,62.54
2022-10-27T11:58:02.445Z,62.64
2022-10-27T11:59:01.788Z,62.74
2022-10-27T12:00:01.425Z,62.64
2022-10-27T12:01:01.430Z,62.54
2022-10-27T12:02:01.540Z,62.74
2022-10-27T12:03:01.406Z,62.74
2022-10-27T12:04:01.397Z,62.74
2022-10-27T12:05:01.380Z,62.74
2022-10-27T12:06:01.358Z,62.54
2022-10-27T12:07:01.685Z,62.64
2022-10-27T12:08:01.344Z,62.74
2022-10-27T12:09:01.333Z,62.84
2022-10-27T12:10:01.322Z,62.74
2022-10-27T12:11:01.315Z,62.64
2022-10-27T12:12:01.297Z,62.64
2022-10-27T12:13:01.597Z,62.74
2022-10-27T12:14:01.253Z,62.64
2022-10-27T12:15:01.251Z,62.84
2022-10-27T12:16:01.563Z,63.01
2022-10-27T12:17:01.556Z,62.61
2022-10-27T12:18:04.751Z,62.71
2022-10-27T12:19:02.225Z,62.61
2022-10-27T12:20:01.209Z,62.41
2022-10-27T12:21:01.188Z,62.41
2022-10-27T12:22:01.469Z,62.31
2022-10-27T12:23:01.185Z,62.12
2022-10-27T12:24:01.145Z,62.12
2022-10-27T12:25:01.127Z,62.12
2022-10-27T12:26:01.125Z,62.21
2022-10-27T12:27:01.121Z,62.31
2022-10-27T12:28:01.182Z,62.04
2022-10-27T12:29:01.091Z,62.15
2022-10-27T12:30:01.093Z,62.34
2022-10-27T12:31:01.251Z,62.34
2022-10-27T12:32:01.063Z,62.34
2022-10-27T12:33:01.031Z,62.24
2022-10-27T12:34:01.051Z,62.45
2022-10-27T12:35:01.010Z,62.34
2022-10-27T12:36:01.011Z,62.54
2022-10-27T12:37:01.005Z,62.41
2022-10-27T12:38:01.235Z,62.51
2022-10-27T12:39:00.974Z,62.61
2022-10-27T12:40:01.285Z,62.41
2022-10-27T12:41:00.942Z,62.31
2022-10-27T12:42:00.946Z,62.71
2022-10-27T12:43:01.145Z,62.74
2022-10-27T12:44:00.932Z,62.74
2022-10-27T12:45:01.242Z,62.84
2022-10-27T12:46:00.898Z,63.14
2022-10-27T12:47:00.875Z,63.01
2022-10-27T12:48:01.162Z,62.71
2022-10-27T12:49:00.866Z,62.51
2022-10-27T12:50:00.864Z,62.71
2022-10-27T12:51:00.840Z,62.61
2022-10-27T12:52:00.828Z,62.21
2022-10-27T12:53:00.815Z,62.41
2022-10-27T12:54:00.787Z,62.21
2022-10-27T12:55:00.777Z,62.31